sensor_id;sensor_type;location;lat;lon;timestamp;P1;durP1;ratioP1;P2;durP2;ratioP2
42988;SDS011;28622;43.716;20.668;2022-11-04T00:01:46;25.13;;;11.90;;
42988;SDS011;28622;43.716;20.668;2022-11-04T00:04:13;25.73;;;12.05;;
42988;SDS011;28622;43.716;20.668;2022-11-04T00:06:40;20.98;;;12.65;;
42988;SDS011;28622;43.716;20.668;2022-11-04T00:09:07;21.42;;;12.65;;
42988;SDS011;28622;43.716;20.668;2022-11-04T00:11:34;22.75;;;11.85;;
42988;SDS011;28622;43.716;20.668;2022-11-04T00:14:19;24.13;;;12.65;;
42988;SDS011;28622;43.716;20.668;2022-11-04T00:16:45;25.60;;;12.85;;
42988;SDS011;28622;43.716;20.668;2022-11-04T00:19:30;24.77;;;12.02;;
42988;SDS011;28622;43.716;20.668;2022-11-04T00:22:16;21.75;;;10.35;;
42988;SDS011;28622;43.716;20.668;2022-11-04T00:25:01;23.23;;;12.90;;
42988;SDS011;28622;43.716;20.668;2022-11-04T00:27:45;27.35;;;12.63;;
42988;SDS011;28622;43.716;20.668;2022-11-04T00:30:29;24.38;;;12.68;;
42988;SDS011;28622;43.716;20.668;2022-11-04T00:32:55;25.48;;;12.40;;
42988;SDS011;28622;43.716;20.668;2022-11-04T00:35:39;33.58;;;15.90;;
42988;SDS011;28622;43.716;20.668;2022-11-04T00:38:05;36.88;;;15.50;;
42988;SDS011;28622;43.716;20.668;2022-11-04T00:40:30;27.23;;;12.77;;
42988;SDS011;28622;43.716;20.668;2022-11-04T00:42:56;26.67;;;13.60;;
42988;SDS011;28622;43.716;20.668;2022-11-04T00:45:22;30.55;;;12.77;;
42988;SDS011;28622;43.716;20.668;2022-11-04T00:47:47;22.83;;;12.75;;
42988;SDS011;28622;43.716;20.668;2022-11-04T00:50:13;26.48;;;11.18;;
42988;SDS011;28622;43.716;20.668;2022-11-04T00:52:39;22.33;;;12.65;;
42988;SDS011;28622;43.716;20.668;2022-11-04T00:55:05;28.52;;;10.02;;
42988;SDS011;28622;43.716;20.668;2022-11-04T00:57:31;21.75;;;11.48;;
42988;SDS011;28622;43.716;20.668;2022-11-04T00:59:57;20.23;;;10.35;;
42988;SDS011;28622;43.716;20.668;2022-11-04T01:02:23;32.13;;;11.57;;
42988;SDS011;28622;43.716;20.668;2022-11-04T01:04:50;22.25;;;11.38;;
42988;SDS011;28622;43.716;20.668;2022-11-04T01:07:15;17.98;;;10.75;;
42988;SDS011;28622;43.716;20.668;2022-11-04T01:09:41;21.95;;;9.95;;
42988;SDS011;28622;43.716;20.668;2022-11-04T01:12:07;26.90;;;11.88;;
42988;SDS011;28622;43.716;20.668;2022-11-04T01:14:32;22.85;;;11.20;;
42988;SDS011;28622;43.716;20.668;2022-11-04T01:16:58;25.45;;;12.40;;
42988;SDS011;28622;43.716;20.668;2022-11-04T01:19:24;27.38;;;13.05;;
42988;SDS011;28622;43.716;20.668;2022-11-04T01:21:50;31.85;;;13.68;;
42988;SDS011;28622;43.716;20.668;2022-11-04T01:24:16;39.50;;;14.82;;
42988;SDS011;28622;43.716;20.668;2022-11-04T01:26:43;40.45;;;15.60;;
42988;SDS011;28622;43.716;20.668;2022-11-04T01:29:08;35.65;;;16.27;;
42988;SDS011;28622;43.716;20.668;2022-11-04T01:31:34;36.78;;;16.50;;
42988;SDS011;28622;43.716;20.668;2022-11-04T01:34:00;40.85;;;16.80;;
42988;SDS011;28622;43.716;20.668;2022-11-04T01:36:26;38.38;;;14.98;;
42988;SDS011;28622;43.716;20.668;2022-11-04T01:38:53;25.83;;;14.10;;
42988;SDS011;28622;43.716;20.668;2022-11-04T01:41:22;32.10;;;14.70;;
42988;SDS011;28622;43.716;20.668;2022-11-04T01:43:56;37.20;;;16.55;;
42988;SDS011;28622;43.716;20.668;2022-11-04T01:51:41;31.67;;;14.48;;
42988;SDS011;28622;43.716;20.668;2022-11-04T01:54:08;33.45;;;16.65;;
42988;SDS011;28622;43.716;20.668;2022-11-04T01:56:35;34.63;;;14.32;;
42988;SDS011;28622;43.716;20.668;2022-11-04T01:59:03;40.30;;;15.82;;
42988;SDS011;28622;43.716;20.668;2022-11-04T02:01:33;32.55;;;12.82;;
42988;SDS011;28622;43.716;20.668;2022-11-04T02:03:59;34.42;;;14.00;;
42988;SDS011;28622;43.716;20.668;2022-11-04T02:06:48;31.70;;;12.55;;
42988;SDS011;28622;43.716;20.668;2022-11-04T02:09:17;33.63;;;14.82;;
42988;SDS011;28622;43.716;20.668;2022-11-04T02:11:44;38.28;;;14.15;;
42988;SDS011;28622;43.716;20.668;2022-11-04T02:14:29;24.08;;;10.93;;
42988;SDS011;28622;43.716;20.668;2022-11-04T02:36:46;30.83;;;13.82;;
42988;SDS011;28622;43.716;20.668;2022-11-04T02:41:57;35.20;;;12.52;;
42988;SDS011;28622;43.716;20.668;2022-11-04T02:44:57;21.98;;;12.10;;
42988;SDS011;28622;43.716;20.668;2022-11-04T02:47:27;26.85;;;11.90;;
42988;SDS011;28622;43.716;20.668;2022-11-04T02:50:09;28.88;;;13.05;;
42988;SDS011;28622;43.716;20.668;2022-11-04T02:52:46;33.95;;;12.70;;
42988;SDS011;28622;43.716;20.668;2022-11-04T02:55:24;26.50;;;11.15;;
42988;SDS011;28622;43.716;20.668;2022-11-04T02:57:54;29.25;;;12.75;;
42988;SDS011;28622;43.716;20.668;2022-11-04T03:00:23;28.73;;;12.05;;
42988;SDS011;28622;43.716;20.668;2022-11-04T03:03:08;25.02;;;10.13;;
42988;SDS011;28622;43.716;20.668;2022-11-04T03:05:37;22.52;;;9.70;;
42988;SDS011;28622;43.716;20.668;2022-11-04T03:08:18;29.10;;;13.13;;
42988;SDS011;28622;43.716;20.668;2022-11-04T03:11:12;24.40;;;11.60;;
42988;SDS011;28622;43.716;20.668;2022-11-04T03:13:42;22.67;;;10.00;;
42988;SDS011;28622;43.716;20.668;2022-11-04T03:16:41;15.80;;;9.63;;
42988;SDS011;28622;43.716;20.668;2022-11-04T03:22:09;22.92;;;11.50;;
42988;SDS011;28622;43.716;20.668;2022-11-04T03:24:39;21.77;;;10.55;;
42988;SDS011;28622;43.716;20.668;2022-11-04T03:34:58;21.17;;;10.65;;
42988;SDS011;28622;43.716;20.668;2022-11-04T03:37:24;15.98;;;7.97;;
42988;SDS011;28622;43.716;20.668;2022-11-04T03:39:49;17.10;;;8.60;;
42988;SDS011;28622;43.716;20.668;2022-11-04T03:42:15;17.67;;;8.77;;
42988;SDS011;28622;43.716;20.668;2022-11-04T03:44:47;13.82;;;7.50;;
42988;SDS011;28622;43.716;20.668;2022-11-04T03:47:14;20.38;;;8.23;;
42988;SDS011;28622;43.716;20.668;2022-11-04T03:49:41;19.10;;;9.50;;
42988;SDS011;28622;43.716;20.668;2022-11-04T03:52:08;22.58;;;9.13;;
42988;SDS011;28622;43.716;20.668;2022-11-04T03:54:33;23.27;;;8.77;;
42988;SDS011;28622;43.716;20.668;2022-11-04T04:07:55;14.80;;;7.78;;
42988;SDS011;28622;43.716;20.668;2022-11-04T04:16:14;19.75;;;9.13;;
42988;SDS011;28622;43.716;20.668;2022-11-04T04:18:58;20.90;;;8.85;;
42988;SDS011;28622;43.716;20.668;2022-11-04T04:21:39;20.88;;;9.43;;
42988;SDS011;28622;43.716;20.668;2022-11-04T04:24:17;16.27;;;7.93;;
42988;SDS011;28622;43.716;20.668;2022-11-04T04:27:04;13.70;;;7.57;;
42988;SDS011;28622;43.716;20.668;2022-11-04T04:29:49;17.08;;;8.77;;
42988;SDS011;28622;43.716;20.668;2022-11-04T04:32:16;18.10;;;8.70;;
42988;SDS011;28622;43.716;20.668;2022-11-04T04:34:44;19.77;;;8.80;;
42988;SDS011;28622;43.716;20.668;2022-11-04T04:37:12;14.93;;;7.68;;
42988;SDS011;28622;43.716;20.668;2022-11-04T04:39:51;18.58;;;7.50;;
42988;SDS011;28622;43.716;20.668;2022-11-04T04:42:38;18.00;;;8.45;;
42988;SDS011;28622;43.716;20.668;2022-11-04T04:45:32;14.15;;;8.10;;
42988;SDS011;28622;43.716;20.668;2022-11-04T04:48:01;21.98;;;9.15;;
42988;SDS011;28622;43.716;20.668;2022-11-04T04:50:29;19.45;;;8.20;;
42988;SDS011;28622;43.716;20.668;2022-11-04T04:52:59;16.47;;;8.30;;
42988;SDS011;28622;43.716;20.668;2022-11-04T04:55:28;13.45;;;6.82;;
42988;SDS011;28622;43.716;20.668;2022-11-04T04:57:56;18.58;;;8.43;;
42988;SDS011;28622;43.716;20.668;2022-11-04T05:00:22;16.13;;;7.55;;
42988;SDS011;28622;43.716;20.668;2022-11-04T05:02:48;17.10;;;7.90;;
42988;SDS011;28622;43.716;20.668;2022-11-04T05:05:14;15.73;;;7.57;;
42988;SDS011;28622;43.716;20.668;2022-11-04T05:07:40;13.23;;;7.88;;
42988;SDS011;28622;43.716;20.668;2022-11-04T05:10:07;18.85;;;7.78;;
42988;SDS011;28622;43.716;20.668;2022-11-04T05:12:35;15.55;;;7.47;;
42988;SDS011;28622;43.716;20.668;2022-11-04T05:15:20;14.50;;;7.47;;
42988;SDS011;28622;43.716;20.668;2022-11-04T05:17:46;12.80;;;7.32;;
42988;SDS011;28622;43.716;20.668;2022-11-04T05:20:12;15.90;;;7.07;;
42988;SDS011;28622;43.716;20.668;2022-11-04T05:22:38;21.50;;;8.50;;
42988;SDS011;28622;43.716;20.668;2022-11-04T05:25:04;13.55;;;8.02;;
42988;SDS011;28622;43.716;20.668;2022-11-04T05:47:26;15.23;;;8.13;;
42988;SDS011;28622;43.716;20.668;2022-11-04T05:49:52;16.52;;;8.77;;
42988;SDS011;28622;43.716;20.668;2022-11-04T05:52:19;16.25;;;6.75;;
42988;SDS011;28622;43.716;20.668;2022-11-04T05:54:44;15.35;;;6.97;;
42988;SDS011;28622;43.716;20.668;2022-11-04T05:57:10;11.45;;;6.53;;
42988;SDS011;28622;43.716;20.668;2022-11-04T05:59:36;12.30;;;6.95;;
42988;SDS011;28622;43.716;20.668;2022-11-04T06:02:02;10.43;;;6.43;;
42988;SDS011;28622;43.716;20.668;2022-11-04T06:04:28;10.88;;;6.07;;
42988;SDS011;28622;43.716;20.668;2022-11-04T06:06:54;15.15;;;7.43;;
42988;SDS011;28622;43.716;20.668;2022-11-04T06:09:19;10.35;;;6.00;;
42988;SDS011;28622;43.716;20.668;2022-11-04T06:11:45;14.23;;;7.93;;
42988;SDS011;28622;43.716;20.668;2022-11-04T06:14:11;12.88;;;6.40;;
42988;SDS011;28622;43.716;20.668;2022-11-04T06:16:37;15.13;;;7.35;;
42988;SDS011;28622;43.716;20.668;2022-11-04T06:19:02;12.73;;;7.88;;
42988;SDS011;28622;43.716;20.668;2022-11-04T06:21:29;15.07;;;7.30;;
42988;SDS011;28622;43.716;20.668;2022-11-04T06:23:57;18.88;;;8.35;;
42988;SDS011;28622;43.716;20.668;2022-11-04T06:26:27;15.23;;;7.53;;
42988;SDS011;28622;43.716;20.668;2022-11-04T06:28:55;18.10;;;7.78;;
42988;SDS011;28622;43.716;20.668;2022-11-04T06:31:21;16.00;;;7.20;;
42988;SDS011;28622;43.716;20.668;2022-11-04T06:33:47;13.85;;;8.20;;
42988;SDS011;28622;43.716;20.668;2022-11-04T06:36:14;16.08;;;8.98;;
42988;SDS011;28622;43.716;20.668;2022-11-04T06:38:41;15.35;;;8.00;;
42988;SDS011;28622;43.716;20.668;2022-11-04T06:41:07;20.33;;;8.70;;
42988;SDS011;28622;43.716;20.668;2022-11-04T06:43:36;18.90;;;8.98;;
42988;SDS011;28622;43.716;20.668;2022-11-04T06:46:02;21.23;;;10.25;;
42988;SDS011;28622;43.716;20.668;2022-11-04T06:48:29;16.60;;;9.07;;
42988;SDS011;28622;43.716;20.668;2022-11-04T06:50:58;18.02;;;9.68;;
42988;SDS011;28622;43.716;20.668;2022-11-04T06:53:25;22.63;;;11.70;;
42988;SDS011;28622;43.716;20.668;2022-11-04T06:55:52;21.77;;;10.73;;
42988;SDS011;28622;43.716;20.668;2022-11-04T06:58:18;21.98;;;11.60;;
42988;SDS011;28622;43.716;20.668;2022-11-04T07:00:49;23.60;;;11.23;;
42988;SDS011;28622;43.716;20.668;2022-11-04T07:03:16;20.45;;;10.73;;
42988;SDS011;28622;43.716;20.668;2022-11-04T07:05:42;21.90;;;10.10;;
42988;SDS011;28622;43.716;20.668;2022-11-04T07:08:08;25.77;;;11.90;;
42988;SDS011;28622;43.716;20.668;2022-11-04T07:10:33;15.48;;;8.75;;
42988;SDS011;28622;43.716;20.668;2022-11-04T07:12:59;22.88;;;10.85;;
42988;SDS011;28622;43.716;20.668;2022-11-04T07:15:25;17.92;;;9.43;;
42988;SDS011;28622;43.716;20.668;2022-11-04T07:17:51;14.77;;;8.27;;
42988;SDS011;28622;43.716;20.668;2022-11-04T07:20:16;19.00;;;9.88;;
42988;SDS011;28622;43.716;20.668;2022-11-04T07:22:42;18.27;;;9.98;;
42988;SDS011;28622;43.716;20.668;2022-11-04T07:25:08;16.15;;;9.13;;
42988;SDS011;28622;43.716;20.668;2022-11-04T07:27:34;17.20;;;8.02;;
42988;SDS011;28622;43.716;20.668;2022-11-04T07:30:00;15.68;;;8.52;;
42988;SDS011;28622;43.716;20.668;2022-11-04T07:32:25;15.95;;;8.88;;
42988;SDS011;28622;43.716;20.668;2022-11-04T07:34:51;27.48;;;10.93;;
42988;SDS011;28622;43.716;20.668;2022-11-04T07:37:17;22.15;;;10.20;;
42988;SDS011;28622;43.716;20.668;2022-11-04T07:39:43;21.52;;;10.32;;
42988;SDS011;28622;43.716;20.668;2022-11-04T07:42:09;23.75;;;11.50;;
42988;SDS011;28622;43.716;20.668;2022-11-04T07:44:35;30.27;;;13.48;;
42988;SDS011;28622;43.716;20.668;2022-11-04T07:47:01;31.98;;;13.40;;
42988;SDS011;28622;43.716;20.668;2022-11-04T07:49:27;21.67;;;11.10;;
42988;SDS011;28622;43.716;20.668;2022-11-04T07:51:53;29.63;;;14.60;;
42988;SDS011;28622;43.716;20.668;2022-11-04T07:54:19;24.60;;;13.20;;
42988;SDS011;28622;43.716;20.668;2022-11-04T07:56:44;38.60;;;15.65;;
42988;SDS011;28622;43.716;20.668;2022-11-04T07:59:10;29.52;;;13.55;;
42988;SDS011;28622;43.716;20.668;2022-11-04T08:01:36;23.60;;;11.70;;
42988;SDS011;28622;43.716;20.668;2022-11-04T08:04:02;24.08;;;11.82;;
42988;SDS011;28622;43.716;20.668;2022-11-04T08:06:29;27.67;;;12.00;;
42988;SDS011;28622;43.716;20.668;2022-11-04T08:08:56;20.50;;;11.02;;
42988;SDS011;28622;43.716;20.668;2022-11-04T08:11:23;26.35;;;13.77;;
42988;SDS011;28622;43.716;20.668;2022-11-04T08:13:52;19.27;;;10.57;;
42988;SDS011;28622;43.716;20.668;2022-11-04T08:16:20;24.13;;;14.05;;
42988;SDS011;28622;43.716;20.668;2022-11-04T08:18:48;25.05;;;11.77;;
42988;SDS011;28622;43.716;20.668;2022-11-04T08:21:16;22.55;;;12.50;;
42988;SDS011;28622;43.716;20.668;2022-11-04T08:23:42;25.05;;;12.88;;
42988;SDS011;28622;43.716;20.668;2022-11-04T08:26:09;24.00;;;11.23;;
42988;SDS011;28622;43.716;20.668;2022-11-04T08:28:36;19.83;;;10.23;;
42988;SDS011;28622;43.716;20.668;2022-11-04T08:31:04;19.67;;;9.95;;
42988;SDS011;28622;43.716;20.668;2022-11-04T08:33:33;21.35;;;10.38;;
42988;SDS011;28622;43.716;20.668;2022-11-04T08:36:04;18.63;;;9.77;;
42988;SDS011;28622;43.716;20.668;2022-11-04T08:38:36;16.52;;;9.52;;
42988;SDS011;28622;43.716;20.668;2022-11-04T08:41:02;17.05;;;9.23;;
42988;SDS011;28622;43.716;20.668;2022-11-04T08:43:30;19.20;;;9.38;;
42988;SDS011;28622;43.716;20.668;2022-11-04T08:45:56;19.80;;;10.52;;
42988;SDS011;28622;43.716;20.668;2022-11-04T08:48:22;16.00;;;9.10;;
42988;SDS011;28622;43.716;20.668;2022-11-04T08:50:52;18.63;;;9.73;;
42988;SDS011;28622;43.716;20.668;2022-11-04T08:53:19;21.42;;;9.68;;
42988;SDS011;28622;43.716;20.668;2022-11-04T08:55:45;21.38;;;11.00;;
42988;SDS011;28622;43.716;20.668;2022-11-04T08:58:12;18.83;;;9.32;;
42988;SDS011;28622;43.716;20.668;2022-11-04T09:00:38;19.30;;;9.73;;
42988;SDS011;28622;43.716;20.668;2022-11-04T09:03:04;20.35;;;10.57;;
42988;SDS011;28622;43.716;20.668;2022-11-04T09:05:30;18.98;;;10.95;;
42988;SDS011;28622;43.716;20.668;2022-11-04T09:07:56;19.67;;;10.13;;
42988;SDS011;28622;43.716;20.668;2022-11-04T09:10:22;18.60;;;10.55;;
42988;SDS011;28622;43.716;20.668;2022-11-04T09:12:47;21.40;;;10.07;;
42988;SDS011;28622;43.716;20.668;2022-11-04T09:15:13;21.25;;;10.63;;
42988;SDS011;28622;43.716;20.668;2022-11-04T09:17:39;38.95;;;15.82;;
42988;SDS011;28622;43.716;20.668;2022-11-04T09:20:05;25.27;;;10.60;;
42988;SDS011;28622;43.716;20.668;2022-11-04T09:22:31;19.08;;;11.05;;
42988;SDS011;28622;43.716;20.668;2022-11-04T09:24:57;44.17;;;20.10;;
42988;SDS011;28622;43.716;20.668;2022-11-04T09:27:23;34.15;;;13.85;;
42988;SDS011;28622;43.716;20.668;2022-11-04T09:29:49;33.17;;;15.23;;
42988;SDS011;28622;43.716;20.668;2022-11-04T09:32:15;24.52;;;11.25;;
42988;SDS011;28622;43.716;20.668;2022-11-04T09:34:40;27.08;;;11.63;;
42988;SDS011;28622;43.716;20.668;2022-11-04T09:37:06;28.52;;;14.70;;
42988;SDS011;28622;43.716;20.668;2022-11-04T09:39:32;24.42;;;12.38;;
42988;SDS011;28622;43.716;20.668;2022-11-04T09:47:35;33.30;;;12.90;;
42988;SDS011;28622;43.716;20.668;2022-11-04T09:50:05;19.17;;;9.52;;
42988;SDS011;28622;43.716;20.668;2022-11-04T09:52:38;22.63;;;11.45;;
42988;SDS011;28622;43.716;20.668;2022-11-04T09:55:25;24.58;;;11.88;;
42988;SDS011;28622;43.716;20.668;2022-11-04T09:57:59;20.25;;;10.93;;
42988;SDS011;28622;43.716;20.668;2022-11-04T10:00:25;23.95;;;11.40;;
42988;SDS011;28622;43.716;20.668;2022-11-04T10:22:35;21.63;;;9.25;;
42988;SDS011;28622;43.716;20.668;2022-11-04T10:25:15;21.88;;;10.15;;
42988;SDS011;28622;43.716;20.668;2022-11-04T10:27:47;17.17;;;8.95;;
42988;SDS011;28622;43.716;20.668;2022-11-04T10:30:15;18.55;;;8.73;;
42988;SDS011;28622;43.716;20.668;2022-11-04T10:35:25;19.23;;;10.30;;
42988;SDS011;28622;43.716;20.668;2022-11-04T10:37:55;19.48;;;10.45;;
42988;SDS011;28622;43.716;20.668;2022-11-04T10:40:26;19.58;;;9.60;;
42988;SDS011;28622;43.716;20.668;2022-11-04T10:42:57;27.77;;;10.27;;
42988;SDS011;28622;43.716;20.668;2022-11-04T10:45:33;28.95;;;11.55;;
42988;SDS011;28622;43.716;20.668;2022-11-04T10:48:07;18.20;;;10.20;;
42988;SDS011;28622;43.716;20.668;2022-11-04T10:50:58;22.85;;;9.77;;
42988;SDS011;28622;43.716;20.668;2022-11-04T10:53:28;19.25;;;9.32;;
42988;SDS011;28622;43.716;20.668;2022-11-04T10:55:58;18.08;;;8.45;;
42988;SDS011;28622;43.716;20.668;2022-11-04T10:58:45;12.88;;;7.75;;
42988;SDS011;28622;43.716;20.668;2022-11-04T11:01:31;21.20;;;9.73;;
42988;SDS011;28622;43.716;20.668;2022-11-04T11:03:58;24.23;;;9.52;;
42988;SDS011;28622;43.716;20.668;2022-11-04T11:06:28;20.58;;;9.85;;
42988;SDS011;28622;43.716;20.668;2022-11-04T11:08:57;18.50;;;8.88;;
42988;SDS011;28622;43.716;20.668;2022-11-04T11:11:56;24.27;;;9.60;;
42988;SDS011;28622;43.716;20.668;2022-11-04T11:14:44;17.33;;;8.88;;
42988;SDS011;28622;43.716;20.668;2022-11-04T11:20:20;17.17;;;8.18;;
42988;SDS011;28622;43.716;20.668;2022-11-04T11:22:47;24.92;;;10.23;;
42988;SDS011;28622;43.716;20.668;2022-11-04T11:25:28;22.65;;;9.43;;
42988;SDS011;28622;43.716;20.668;2022-11-04T11:32:59;15.05;;;7.40;;
42988;SDS011;28622;43.716;20.668;2022-11-04T11:35:38;17.85;;;8.60;;
42988;SDS011;28622;43.716;20.668;2022-11-04T11:38:16;14.95;;;6.60;;
42988;SDS011;28622;43.716;20.668;2022-11-04T11:40:43;19.83;;;6.40;;
42988;SDS011;28622;43.716;20.668;2022-11-04T11:43:21;11.27;;;5.78;;
42988;SDS011;28622;43.716;20.668;2022-11-04T11:51:07;9.35;;;4.82;;
42988;SDS011;28622;43.716;20.668;2022-11-04T11:53:57;16.02;;;4.97;;
42988;SDS011;28622;43.716;20.668;2022-11-04T11:56:34;14.63;;;5.80;;
42988;SDS011;28622;43.716;20.668;2022-11-04T11:59:12;14.38;;;5.32;;
42988;SDS011;28622;43.716;20.668;2022-11-04T12:04:43;21.83;;;9.38;;
42988;SDS011;28622;43.716;20.668;2022-11-04T12:07:26;21.83;;;11.40;;
42988;SDS011;28622;43.716;20.668;2022-11-04T12:18:13;14.50;;;6.70;;
42988;SDS011;28622;43.716;20.668;2022-11-04T12:26:40;10.35;;;4.25;;
42988;SDS011;28622;43.716;20.668;2022-11-04T12:32:03;8.85;;;4.40;;
42988;SDS011;28622;43.716;20.668;2022-11-04T12:37:19;5.72;;;3.15;;
42988;SDS011;28622;43.716;20.668;2022-11-04T12:39:55;8.88;;;4.50;;
42988;SDS011;28622;43.716;20.668;2022-11-04T12:45:44;9.93;;;4.70;;
42988;SDS011;28622;43.716;20.668;2022-11-04T12:56:08;11.07;;;5.35;;
42988;SDS011;28622;43.716;20.668;2022-11-04T13:01:39;10.30;;;4.80;;
42988;SDS011;28622;43.716;20.668;2022-11-04T13:04:11;19.40;;;5.25;;
42988;SDS011;28622;43.716;20.668;2022-11-04T13:11:54;10.07;;;4.97;;
42988;SDS011;28622;43.716;20.668;2022-11-04T13:14:28;9.60;;;4.45;;
42988;SDS011;28622;43.716;20.668;2022-11-04T13:16:58;7.75;;;4.15;;
42988;SDS011;28622;43.716;20.668;2022-11-04T13:21:57;12.32;;;5.40;;
42988;SDS011;28622;43.716;20.668;2022-11-04T13:24:32;11.07;;;5.43;;
42988;SDS011;28622;43.716;20.668;2022-11-04T13:27:08;16.98;;;5.43;;
42988;SDS011;28622;43.716;20.668;2022-11-04T13:29:43;13.77;;;4.00;;
42988;SDS011;28622;43.716;20.668;2022-11-04T13:32:12;11.27;;;5.07;;
42988;SDS011;28622;43.716;20.668;2022-11-04T13:45:53;19.23;;;7.57;;
42988;SDS011;28622;43.716;20.668;2022-11-04T13:48:22;9.52;;;4.70;;
42988;SDS011;28622;43.716;20.668;2022-11-04T13:51:14;10.98;;;5.45;;
42988;SDS011;28622;43.716;20.668;2022-11-04T13:53:57;10.00;;;5.03;;
42988;SDS011;28622;43.716;20.668;2022-11-04T13:56:26;10.93;;;5.32;;
42988;SDS011;28622;43.716;20.668;2022-11-04T13:58:58;11.80;;;5.07;;
42988;SDS011;28622;43.716;20.668;2022-11-04T14:01:43;10.32;;;4.78;;
42988;SDS011;28622;43.716;20.668;2022-11-04T14:06:54;14.38;;;4.97;;
42988;SDS011;28622;43.716;20.668;2022-11-04T14:14:34;14.27;;;6.95;;
42988;SDS011;28622;43.716;20.668;2022-11-04T14:17:56;25.08;;;10.98;;
42988;SDS011;28622;43.716;20.668;2022-11-04T14:22:32;15.82;;;7.97;;
42988;SDS011;28622;43.716;20.668;2022-11-04T14:25:03;15.25;;;7.57;;
42988;SDS011;28622;43.716;20.668;2022-11-04T14:27:44;16.38;;;5.90;;
42988;SDS011;28622;43.716;20.668;2022-11-04T14:33:04;18.80;;;6.03;;
42988;SDS011;28622;43.716;20.668;2022-11-04T14:35:32;14.93;;;6.35;;
42988;SDS011;28622;43.716;20.668;2022-11-04T14:38:02;17.10;;;6.30;;
42988;SDS011;28622;43.716;20.668;2022-11-04T14:43:18;9.88;;;5.63;;
42988;SDS011;28622;43.716;20.668;2022-11-04T14:45:55;9.45;;;5.15;;
42988;SDS011;28622;43.716;20.668;2022-11-04T14:48:22;19.67;;;7.80;;
42988;SDS011;28622;43.716;20.668;2022-11-04T14:50:51;19.90;;;8.77;;
42988;SDS011;28622;43.716;20.668;2022-11-04T14:53:36;19.25;;;9.25;;
42988;SDS011;28622;43.716;20.668;2022-11-04T14:56:03;17.58;;;7.40;;
42988;SDS011;28622;43.716;20.668;2022-11-04T14:58:30;21.75;;;9.60;;
42988;SDS011;28622;43.716;20.668;2022-11-04T15:01:02;18.25;;;8.48;;
42988;SDS011;28622;43.716;20.668;2022-11-04T15:06:04;19.08;;;8.70;;
42988;SDS011;28622;43.716;20.668;2022-11-04T15:13:37;22.33;;;10.65;;
42988;SDS011;28622;43.716;20.668;2022-11-04T15:16:20;17.13;;;8.90;;
42988;SDS011;28622;43.716;20.668;2022-11-04T15:18:51;20.25;;;8.30;;
42988;SDS011;28622;43.716;20.668;2022-11-04T15:21:18;14.48;;;8.05;;
42988;SDS011;28622;43.716;20.668;2022-11-04T15:23:48;18.63;;;7.65;;
42988;SDS011;28622;43.716;20.668;2022-11-04T15:28:47;16.65;;;8.80;;
42988;SDS011;28622;43.716;20.668;2022-11-04T15:31:16;21.63;;;10.68;;
42988;SDS011;28622;43.716;20.668;2022-11-04T15:33:45;23.00;;;9.90;;
42988;SDS011;28622;43.716;20.668;2022-11-04T15:36:18;17.20;;;8.98;;
42988;SDS011;28622;43.716;20.668;2022-11-04T15:39:02;20.38;;;9.75;;
42988;SDS011;28622;43.716;20.668;2022-11-04T15:41:51;19.92;;;7.45;;
42988;SDS011;28622;43.716;20.668;2022-11-04T15:44:43;26.00;;;9.52;;
42988;SDS011;28622;43.716;20.668;2022-11-04T15:49:42;25.00;;;8.80;;
42988;SDS011;28622;43.716;20.668;2022-11-04T15:52:26;18.33;;;8.48;;
42988;SDS011;28622;43.716;20.668;2022-11-04T15:54:54;21.40;;;7.78;;
42988;SDS011;28622;43.716;20.668;2022-11-04T16:02:29;34.03;;;13.50;;
42988;SDS011;28622;43.716;20.668;2022-11-04T16:05:42;39.05;;;14.27;;
42988;SDS011;28622;43.716;20.668;2022-11-04T16:07:53;32.20;;;13.60;;
42988;SDS011;28622;43.716;20.668;2022-11-04T16:10:37;28.90;;;14.35;;
42988;SDS011;28622;43.716;20.668;2022-11-04T16:15:40;38.30;;;17.35;;
42988;SDS011;28622;43.716;20.668;2022-11-04T16:18:20;41.13;;;17.40;;
42988;SDS011;28622;43.716;20.668;2022-11-04T16:20:49;46.92;;;17.70;;
42988;SDS011;28622;43.716;20.668;2022-11-04T16:23:19;37.17;;;15.93;;
42988;SDS011;28622;43.716;20.668;2022-11-04T16:25:54;58.00;;;23.83;;
42988;SDS011;28622;43.716;20.668;2022-11-04T16:28:23;68.57;;;30.35;;
42988;SDS011;28622;43.716;20.668;2022-11-04T16:30:56;47.20;;;24.50;;
42988;SDS011;28622;43.716;20.668;2022-11-04T16:33:26;84.97;;;35.75;;
42988;SDS011;28622;43.716;20.668;2022-11-04T16:35:51;78.65;;;32.95;;
42988;SDS011;28622;43.716;20.668;2022-11-04T16:38:17;64.00;;;27.95;;
42988;SDS011;28622;43.716;20.668;2022-11-04T16:40:45;62.13;;;31.17;;
42988;SDS011;28622;43.716;20.668;2022-11-04T16:43:13;57.97;;;26.10;;
42988;SDS011;28622;43.716;20.668;2022-11-04T16:45:43;55.28;;;24.77;;
42988;SDS011;28622;43.716;20.668;2022-11-04T16:48:20;59.40;;;26.52;;
42988;SDS011;28622;43.716;20.668;2022-11-04T16:50:48;61.10;;;26.90;;
42988;SDS011;28622;43.716;20.668;2022-11-04T16:53:14;65.20;;;27.55;;
42988;SDS011;28622;43.716;20.668;2022-11-04T16:55:40;63.90;;;30.05;;
42988;SDS011;28622;43.716;20.668;2022-11-04T16:58:17;67.03;;;29.30;;
42988;SDS011;28622;43.716;20.668;2022-11-04T17:00:43;69.60;;;28.35;;
42988;SDS011;28622;43.716;20.668;2022-11-04T17:03:15;71.03;;;31.83;;
42988;SDS011;28622;43.716;20.668;2022-11-04T17:05:47;66.97;;;30.50;;
42988;SDS011;28622;43.716;20.668;2022-11-04T17:08:15;61.15;;;28.08;;
42988;SDS011;28622;43.716;20.668;2022-11-04T17:10:40;79.00;;;33.97;;
42988;SDS011;28622;43.716;20.668;2022-11-04T17:13:08;72.35;;;30.23;;
42988;SDS011;28622;43.716;20.668;2022-11-04T17:15:34;42.75;;;20.30;;
42988;SDS011;28622;43.716;20.668;2022-11-04T17:18:00;34.47;;;14.50;;
42988;SDS011;28622;43.716;20.668;2022-11-04T17:20:26;51.70;;;20.67;;
42988;SDS011;28622;43.716;20.668;2022-11-04T17:22:53;33.28;;;15.60;;
42988;SDS011;28622;43.716;20.668;2022-11-04T17:25:23;38.58;;;17.15;;
42988;SDS011;28622;43.716;20.668;2022-11-04T17:27:51;43.70;;;20.08;;
42988;SDS011;28622;43.716;20.668;2022-11-04T17:30:17;40.03;;;18.10;;
42988;SDS011;28622;43.716;20.668;2022-11-04T17:32:44;34.47;;;14.70;;
42988;SDS011;28622;43.716;20.668;2022-11-04T17:35:10;30.58;;;15.45;;
42988;SDS011;28622;43.716;20.668;2022-11-04T17:37:37;38.50;;;16.48;;
42988;SDS011;28622;43.716;20.668;2022-11-04T17:40:03;45.35;;;19.17;;
42988;SDS011;28622;43.716;20.668;2022-11-04T17:42:30;47.47;;;19.30;;
42988;SDS011;28622;43.716;20.668;2022-11-04T17:45:14;38.92;;;15.88;;
42988;SDS011;28622;43.716;20.668;2022-11-04T17:47:40;33.67;;;15.57;;
42988;SDS011;28622;43.716;20.668;2022-11-04T17:50:06;34.67;;;13.88;;
42988;SDS011;28622;43.716;20.668;2022-11-04T17:52:35;26.45;;;11.60;;
42988;SDS011;28622;43.716;20.668;2022-11-04T17:55:01;22.35;;;9.98;;
42988;SDS011;28622;43.716;20.668;2022-11-04T17:57:29;29.70;;;13.07;;
42988;SDS011;28622;43.716;20.668;2022-11-04T17:59:57;26.88;;;12.80;;
42988;SDS011;28622;43.716;20.668;2022-11-04T18:02:23;28.45;;;13.05;;
42988;SDS011;28622;43.716;20.668;2022-11-04T18:04:49;35.80;;;14.07;;